sensor_id;sensor_type;location;lat;lon;timestamp;temperature;humidity
44069;DHT22;29738;51.234;5.484;2023-02-28T00:01:03;-0.60;99.90
44069;DHT22;29738;51.234;5.484;2023-02-28T00:03:29;-0.50;99.90
44069;DHT22;29738;51.234;5.484;2023-02-28T00:05:54;-0.40;99.90
44069;DHT22;29738;51.234;5.484;2023-02-28T00:08:20;-0.50;99.90
44069;DHT22;29738;51.234;5.484;2023-02-28T00:10:46;-0.60;99.90
44069;DHT22;29738;51.234;5.484;2023-02-28T00:13:12;-0.70;99.90
44069;DHT22;29738;51.234;5.484;2023-02-28T00:15:38;-0.60;99.90
44069;DHT22;29738;51.234;5.484;2023-02-28T00:18:04;-0.60;99.90
44069;DHT22;29738;51.234;5.484;2023-02-28T00:20:30;-0.70;99.90
44069;DHT22;29738;51.234;5.484;2023-02-28T00:22:56;-0.80;99.90
44069;DHT22;29738;51.234;5.484;2023-02-28T00:25:23;-0.80;99.90
44069;DHT22;29738;51.234;5.484;2023-02-28T00:27:49;-0.80;99.90
44069;DHT22;29738;51.234;5.484;2023-02-28T00:30:19;-1.00;99.90
44069;DHT22;29738;51.234;5.484;2023-02-28T00:32:45;-0.90;99.90
44069;DHT22;29738;51.234;5.484;2023-02-28T00:35:12;-0.80;99.90
44069;DHT22;29738;51.234;5.484;2023-02-28T00:37:38;-0.80;99.90
44069;DHT22;29738;51.234;5.484;2023-02-28T00:40:05;-1.00;99.90
44069;DHT22;29738;51.234;5.484;2023-02-28T00:42:32;-0.80;99.90
44069;DHT22;29738;51.234;5.484;2023-02-28T00:44:58;-0.80;99.90
44069;DHT22;29738;51.234;5.484;2023-02-28T00:47:24;-0.80;99.90
44069;DHT22;29738;51.234;5.484;2023-02-28T00:49:50;-0.80;99.90
44069;DHT22;29738;51.234;5.484;2023-02-28T00:52:15;-0.90;99.90
44069;DHT22;29738;51.234;5.484;2023-02-28T00:54:41;-0.90;99.90
44069;DHT22;29738;51.234;5.484;2023-02-28T00:57:07;-0.90;99.90
44069;DHT22;29738;51.234;5.484;2023-02-28T00:59:33;-1.00;99.90
44069;DHT22;29738;51.234;5.484;2023-02-28T01:01:58;-1.00;99.90
44069;DHT22;29738;51.234;5.484;2023-02-28T01:04:24;-1.10;99.90
44069;DHT22;29738;51.234;5.484;2023-02-28T01:06:50;-1.20;99.90
44069;DHT22;29738;51.234;5.484;2023-02-28T01:09:16;-1.20;99.90
44069;DHT22;29738;51.234;5.484;2023-02-28T01:11:42;-1.20;99.90
44069;DHT22;29738;51.234;5.484;2023-02-28T01:14:12;-1.20;99.90
44069;DHT22;29738;51.234;5.484;2023-02-28T01:16:39;-1.20;99.90
44069;DHT22;29738;51.234;5.484;2023-02-28T01:19:05;-1.20;99.90
44069;DHT22;29738;51.234;5.484;2023-02-28T01:21:30;-1.30;99.90
44069;DHT22;29738;51.234;5.484;2023-02-28T01:23:57;-1.20;99.90
44069;DHT22;29738;51.234;5.484;2023-02-28T01:26:23;-1.30;99.90
44069;DHT22;29738;51.234;5.484;2023-02-28T01:28:51;-1.30;99.90
44069;DHT22;29738;51.234;5.484;2023-02-28T01:31:17;-1.30;99.90
44069;DHT22;29738;51.234;5.484;2023-02-28T01:33:44;-1.30;99.90
44069;DHT22;29738;51.234;5.484;2023-02-28T01:36:15;-1.30;99.90
44069;DHT22;29738;51.234;5.484;2023-02-28T01:38:42;-1.30;99.90
44069;DHT22;29738;51.234;5.484;2023-02-28T01:41:17;-1.30;99.90
44069;DHT22;29738;51.234;5.484;2023-02-28T01:46:10;-1.40;99.90
44069;DHT22;29738;51.234;5.484;2023-02-28T01:48:40;-1.50;99.90
44069;DHT22;29738;51.234;5.484;2023-02-28T01:51:15;-1.50;99.90
44069;DHT22;29738;51.234;5.484;2023-02-28T01:53:48;-1.50;99.90
44069;DHT22;29738;51.234;5.484;2023-02-28T01:56:19;-1.50;99.90
44069;DHT22;29738;51.234;5.484;2023-02-28T01:58:51;-1.60;99.90
44069;DHT22;29738;51.234;5.484;2023-02-28T02:01:19;-1.60;99.90
44069;DHT22;29738;51.234;5.484;2023-02-28T02:03:54;-1.60;99.90
44069;DHT22;29738;51.234;5.484;2023-02-28T02:06:27;-1.50;99.90
44069;DHT22;29738;51.234;5.484;2023-02-28T02:08:55;-1.60;99.90
44069;DHT22;29738;51.234;5.484;2023-02-28T02:11:22;-1.60;99.90
44069;DHT22;29738;51.234;5.484;2023-02-28T02:17:37;-1.70;99.90
44069;DHT22;29738;51.234;5.484;2023-02-28T02:19:52;-1.70;99.90
44069;DHT22;29738;51.234;5.484;2023-02-28T02:22:42;-1.60;99.90
44069;DHT22;29738;51.234;5.484;2023-02-28T02:39:49;-1.80;99.90
44069;DHT22;29738;51.234;5.484;2023-02-28T02:42:26;-1.80;99.90
44069;DHT22;29738;51.234;5.484;2023-02-28T02:45:12;-1.70;99.90
44069;DHT22;29738;51.234;5.484;2023-02-28T02:47:41;-1.70;99.90
44069;DHT22;29738;51.234;5.484;2023-02-28T02:50:14;-1.80;99.90
44069;DHT22;29738;51.234;5.484;2023-02-28T02:52:47;-1.80;99.90
44069;DHT22;29738;51.234;5.484;2023-02-28T02:55:15;-1.70;99.90
44069;DHT22;29738;51.234;5.484;2023-02-28T02:57:54;-1.70;99.90
44069;DHT22;29738;51.234;5.484;2023-02-28T03:00:26;-1.70;99.90
44069;DHT22;29738;51.234;5.484;2023-02-28T03:02:56;-1.70;99.90
44069;DHT22;29738;51.234;5.484;2023-02-28T03:05:28;-1.70;99.90
44069;DHT22;29738;51.234;5.484;2023-02-28T03:07:55;-1.70;99.90
44069;DHT22;29738;51.234;5.484;2023-02-28T03:10:41;-1.60;99.90
44069;DHT22;29738;51.234;5.484;2023-02-28T03:13:17;-1.70;99.90
44069;DHT22;29738;51.234;5.484;2023-02-28T03:18:40;-1.70;99.90
44069;DHT22;29738;51.234;5.484;2023-02-28T03:24:06;-1.60;99.90
44069;DHT22;29738;51.234;5.484;2023-02-28T03:26:36;-1.70;99.90
44069;DHT22;29738;51.234;5.484;2023-02-28T03:29:13;-1.60;99.90
44069;DHT22;29738;51.234;5.484;2023-02-28T03:31:55;-1.50;99.90
44069;DHT22;29738;51.234;5.484;2023-02-28T03:34:29;-1.50;99.90
44069;DHT22;29738;51.234;5.484;2023-02-28T03:37:03;-1.50;99.90
44069;DHT22;29738;51.234;5.484;2023-02-28T03:39:49;-1.50;99.90
44069;DHT22;29738;51.234;5.484;2023-02-28T03:42:26;-1.50;99.90
44069;DHT22;29738;51.234;5.484;2023-02-28T03:45:13;-1.50;99.90
44069;DHT22;29738;51.234;5.484;2023-02-28T03:48:15;-1.60;99.90
44069;DHT22;29738;51.234;5.484;2023-02-28T03:50:44;-1.30;99.90
44069;DHT22;29738;51.234;5.484;2023-02-28T03:53:31;-1.40;99.90
44069;DHT22;29738;51.234;5.484;2023-02-28T03:56:03;-1.30;99.90
44069;DHT22;29738;51.234;5.484;2023-02-28T03:58:44;-1.30;99.90
44069;DHT22;29738;51.234;5.484;2023-02-28T04:01:30;-1.30;99.90
44069;DHT22;29738;51.234;5.484;2023-02-28T04:03:58;-1.30;99.90
44069;DHT22;29738;51.234;5.484;2023-02-28T04:06:24;-1.30;99.90
44069;DHT22;29738;51.234;5.484;2023-02-28T04:08:50;-1.40;99.90
44069;DHT22;29738;51.234;5.484;2023-02-28T04:11:27;-1.40;99.90
44069;DHT22;29738;51.234;5.484;2023-02-28T04:13:55;-1.40;99.90
44069;DHT22;29738;51.234;5.484;2023-02-28T04:16:21;-1.40;99.90
44069;DHT22;29738;51.234;5.484;2023-02-28T04:18:47;-1.40;99.90
44069;DHT22;29738;51.234;5.484;2023-02-28T04:21:13;-1.40;99.90
44069;DHT22;29738;51.234;5.484;2023-02-28T04:23:39;-1.40;99.90
44069;DHT22;29738;51.234;5.484;2023-02-28T04:26:05;-1.50;99.90
44069;DHT22;29738;51.234;5.484;2023-02-28T04:28:32;-1.50;99.90
44069;DHT22;29738;51.234;5.484;2023-02-28T04:31:00;-1.50;99.90
44069;DHT22;29738;51.234;5.484;2023-02-28T04:33:27;-1.50;99.90
44069;DHT22;29738;51.234;5.484;2023-02-28T04:36:04;-1.50;99.90
44069;DHT22;29738;51.234;5.484;2023-02-28T04:38:38;-1.60;99.90
44069;DHT22;29738;51.234;5.484;2023-02-28T04:41:05;-1.50;99.90
44069;DHT22;29738;51.234;5.484;2023-02-28T04:43:31;-1.60;99.90
44069;DHT22;29738;51.234;5.484;2023-02-28T04:46:00;-1.60;99.90
44069;DHT22;29738;51.234;5.484;2023-02-28T04:48:28;-1.50;99.90
44069;DHT22;29738;51.234;5.484;2023-02-28T04:50:54;-1.60;99.90
44069;DHT22;29738;51.234;5.484;2023-02-28T04:53:20;-1.60;99.90
44069;DHT22;29738;51.234;5.484;2023-02-28T04:55:46;-1.70;99.90
44069;DHT22;29738;51.234;5.484;2023-02-28T04:58:15;-1.70;99.90
44069;DHT22;29738;51.234;5.484;2023-02-28T05:00:41;-1.80;99.90
44069;DHT22;29738;51.234;5.484;2023-02-28T05:03:07;-1.80;99.90
44069;DHT22;29738;51.234;5.484;2023-02-28T05:05:33;-1.80;99.90
44069;DHT22;29738;51.234;5.484;2023-02-28T05:07:59;-1.80;99.90
44069;DHT22;29738;51.234;5.484;2023-02-28T05:10:25;-1.80;99.90
44069;DHT22;29738;51.234;5.484;2023-02-28T05:12:51;-1.90;99.90
44069;DHT22;29738;51.234;5.484;2023-02-28T05:15:17;-1.90;99.90
44069;DHT22;29738;51.234;5.484;2023-02-28T05:17:43;-1.90;99.90
44069;DHT22;29738;51.234;5.484;2023-02-28T05:20:11;-1.90;99.90
44069;DHT22;29738;51.234;5.484;2023-02-28T05:22:39;-1.90;99.90
44069;DHT22;29738;51.234;5.484;2023-02-28T05:25:05;-1.80;99.90
44069;DHT22;29738;51.234;5.484;2023-02-28T05:27:31;-1.80;99.90
44069;DHT22;29738;51.234;5.484;2023-02-28T05:29:57;-1.80;99.90
44069;DHT22;29738;51.234;5.484;2023-02-28T05:32:23;-1.70;99.90
44069;DHT22;29738;51.234;5.484;2023-02-28T05:34:48;-1.90;99.90
44069;DHT22;29738;51.234;5.484;2023-02-28T05:37:15;-2.00;99.90
44069;DHT22;29738;51.234;5.484;2023-02-28T05:39:42;-2.00;99.90
44069;DHT22;29738;51.234;5.484;2023-02-28T05:42:07;-2.10;99.90
44069;DHT22;29738;51.234;5.484;2023-02-28T05:44:34;-2.10;99.90
44069;DHT22;29738;51.234;5.484;2023-02-28T05:47:00;-2.10;99.90
44069;DHT22;29738;51.234;5.484;2023-02-28T05:49:26;-2.10;99.90
44069;DHT22;29738;51.234;5.484;2023-02-28T05:51:52;-2.00;99.90
44069;DHT22;29738;51.234;5.484;2023-02-28T05:54:18;-2.00;99.90
44069;DHT22;29738;51.234;5.484;2023-02-28T05:56:43;-2.00;99.90
44069;DHT22;29738;51.234;5.484;2023-02-28T05:59:11;-2.10;99.90
44069;DHT22;29738;51.234;5.484;2023-02-28T06:01:43;-2.10;99.90
44069;DHT22;29738;51.234;5.484;2023-02-28T06:04:17;-2.30;99.90
44069;DHT22;29738;51.234;5.484;2023-02-28T06:06:52;-2.10;99.90
44069;DHT22;29738;51.234;5.484;2023-02-28T06:09:18;-2.20;99.90
44069;DHT22;29738;51.234;5.484;2023-02-28T06:11:44;-2.10;99.90
44069;DHT22;29738;51.234;5.484;2023-02-28T06:14:16;-2.00;99.90
44069;DHT22;29738;51.234;5.484;2023-02-28T06:16:43;-1.90;99.90
44069;DHT22;29738;51.234;5.484;2023-02-28T06:19:09;-1.80;99.90
44069;DHT22;29738;51.234;5.484;2023-02-28T06:21:35;-1.80;99.90
44069;DHT22;29738;51.234;5.484;2023-02-28T06:24:02;-1.70;99.90
44069;DHT22;29738;51.234;5.484;2023-02-28T06:26:28;-1.70;99.90
44069;DHT22;29738;51.234;5.484;2023-02-28T06:28:54;-1.70;99.90
44069;DHT22;29738;51.234;5.484;2023-02-28T06:31:20;-1.70;99.90
44069;DHT22;29738;51.234;5.484;2023-02-28T06:33:48;-1.70;99.90
44069;DHT22;29738;51.234;5.484;2023-02-28T06:36:15;-1.70;99.90
44069;DHT22;29738;51.234;5.484;2023-02-28T06:38:42;-1.70;99.90
44069;DHT22;29738;51.234;5.484;2023-02-28T06:41:08;-1.70;99.90
44069;DHT22;29738;51.234;5.484;2023-02-28T06:43:38;-1.70;99.90
44069;DHT22;29738;51.234;5.484;2023-02-28T06:46:06;-1.80;99.90
44069;DHT22;29738;51.234;5.484;2023-02-28T06:48:32;-1.70;99.90
44069;DHT22;29738;51.234;5.484;2023-02-28T06:51:07;-1.70;99.90
44069;DHT22;29738;51.234;5.484;2023-02-28T06:53:34;-1.90;99.90
44069;DHT22;29738;51.234;5.484;2023-02-28T06:56:04;-1.70;99.90
44069;DHT22;29738;51.234;5.484;2023-02-28T06:58:32;-1.60;99.90
44069;DHT22;29738;51.234;5.484;2023-02-28T07:00:57;-1.60;99.90
44069;DHT22;29738;51.234;5.484;2023-02-28T07:03:23;-1.60;99.90
44069;DHT22;29738;51.234;5.484;2023-02-28T07:05:49;-1.60;99.90
44069;DHT22;29738;51.234;5.484;2023-02-28T07:08:15;-1.50;99.90
44069;DHT22;29738;51.234;5.484;2023-02-28T07:10:41;-1.40;99.90
44069;DHT22;29738;51.234;5.484;2023-02-28T07:13:07;-1.40;99.90
44069;DHT22;29738;51.234;5.484;2023-02-28T07:15:34;-1.40;99.90
44069;DHT22;29738;51.234;5.484;2023-02-28T07:18:00;-1.30;99.90
44069;DHT22;29738;51.234;5.484;2023-02-28T07:20:26;-1.30;99.90
44069;DHT22;29738;51.234;5.484;2023-02-28T07:22:52;-1.20;99.90
44069;DHT22;29738;51.234;5.484;2023-02-28T07:25:26;-1.10;99.90
44069;DHT22;29738;51.234;5.484;2023-02-28T07:27:53;-1.00;99.90
44069;DHT22;29738;51.234;5.484;2023-02-28T07:30:19;-0.90;99.90
44069;DHT22;29738;51.234;5.484;2023-02-28T07:32:45;-0.90;99.90
44069;DHT22;29738;51.234;5.484;2023-02-28T07:35:11;-0.80;99.90
44069;DHT22;29738;51.234;5.484;2023-02-28T07:37:37;-0.80;99.90
44069;DHT22;29738;51.234;5.484;2023-02-28T07:40:08;-0.60;99.90
44069;DHT22;29738;51.234;5.484;2023-02-28T07:42:35;-0.70;99.90
44069;DHT22;29738;51.234;5.484;2023-02-28T07:45:02;-0.60;99.90
44069;DHT22;29738;51.234;5.484;2023-02-28T07:47:29;-0.60;99.90
44069;DHT22;29738;51.234;5.484;2023-02-28T07:49:56;-0.60;99.90
44069;DHT22;29738;51.234;5.484;2023-02-28T07:52:22;-0.50;99.90
44069;DHT22;29738;51.234;5.484;2023-02-28T07:54:52;-0.40;99.90
44069;DHT22;29738;51.234;5.484;2023-02-28T07:57:18;-0.40;99.90
44069;DHT22;29738;51.234;5.484;2023-02-28T07:59:44;-0.30;99.90
44069;DHT22;29738;51.234;5.484;2023-02-28T08:02:14;-0.30;99.90
44069;DHT22;29738;51.234;5.484;2023-02-28T08:04:40;-0.20;99.90
44069;DHT22;29738;51.234;5.484;2023-02-28T08:07:06;-0.10;99.90
44069;DHT22;29738;51.234;5.484;2023-02-28T08:09:32;-0.20;99.90
44069;DHT22;29738;51.234;5.484;2023-02-28T08:11:58;0.00;99.90
44069;DHT22;29738;51.234;5.484;2023-02-28T08:14:26;0.00;99.90
44069;DHT22;29738;51.234;5.484;2023-02-28T08:16:52;0.10;99.90
44069;DHT22;29738;51.234;5.484;2023-02-28T08:19:18;0.10;99.90
44069;DHT22;29738;51.234;5.484;2023-02-28T08:21:43;0.00;99.90
44069;DHT22;29738;51.234;5.484;2023-02-28T08:24:09;0.10;99.90
44069;DHT22;29738;51.234;5.484;2023-02-28T08:26:35;0.30;99.90
44069;DHT22;29738;51.234;5.484;2023-02-28T08:29:01;0.40;99.90
44069;DHT22;29738;51.234;5.484;2023-02-28T08:31:27;0.50;99.90
44069;DHT22;29738;51.234;5.484;2023-02-28T08:33:53;0.50;99.90
44069;DHT22;29738;51.234;5.484;2023-02-28T08:36:21;0.60;99.90
44069;DHT22;29738;51.234;5.484;2023-02-28T08:38:47;0.60;99.90
44069;DHT22;29738;51.234;5.484;2023-02-28T08:41:13;0.70;99.90
44069;DHT22;29738;51.234;5.484;2023-02-28T08:43:39;0.90;99.90
44069;DHT22;29738;51.234;5.484;2023-02-28T08:46:06;1.00;99.90
44069;DHT22;29738;51.234;5.484;2023-02-28T08:48:33;1.10;99.90
44069;DHT22;29738;51.234;5.484;2023-02-28T08:51:03;1.20;99.90
44069;DHT22;29738;51.234;5.484;2023-02-28T08:53:29;1.30;99.90
44069;DHT22;29738;51.234;5.484;2023-02-28T08:55:57;1.30;99.90
44069;DHT22;29738;51.234;5.484;2023-02-28T08:58:23;1.20;99.90
44069;DHT22;29738;51.234;5.484;2023-02-28T09:00:50;1.50;99.90
44069;DHT22;29738;51.234;5.484;2023-02-28T09:03:16;1.50;99.90
44069;DHT22;29738;51.234;5.484;2023-02-28T09:05:55;1.60;99.90
44069;DHT22;29738;51.234;5.484;2023-02-28T09:08:21;1.50;99.90
44069;DHT22;29738;51.234;5.484;2023-02-28T09:10:46;1.60;99.90
44069;DHT22;29738;51.234;5.484;2023-02-28T09:13:12;1.60;99.90
44069;DHT22;29738;51.234;5.484;2023-02-28T09:15:38;1.70;99.90
44069;DHT22;29738;51.234;5.484;2023-02-28T09:18:04;1.70;99.90
44069;DHT22;29738;51.234;5.484;2023-02-28T09:20:30;1.80;99.90
44069;DHT22;29738;51.234;5.484;2023-02-28T09:22:56;1.80;99.90
44069;DHT22;29738;51.234;5.484;2023-02-28T09:25:21;1.90;99.90
44069;DHT22;29738;51.234;5.484;2023-02-28T09:27:47;1.90;99.90
44069;DHT22;29738;51.234;5.484;2023-02-28T09:30:14;2.00;99.90
44069;DHT22;29738;51.234;5.484;2023-02-28T09:32:40;2.00;99.90
44069;DHT22;29738;51.234;5.484;2023-02-28T09:35:06;2.00;99.90
44069;DHT22;29738;51.234;5.484;2023-02-28T09:37:32;2.30;99.90
44069;DHT22;29738;51.234;5.484;2023-02-28T09:39:58;2.20;99.90
44069;DHT22;29738;51.234;5.484;2023-02-28T09:42:30;2.30;99.90
44069;DHT22;29738;51.234;5.484;2023-02-28T09:44:59;2.30;99.90
44069;DHT22;29738;51.234;5.484;2023-02-28T09:47:33;2.50;99.90
44069;DHT22;29738;51.234;5.484;2023-02-28T09:50:20;2.30;99.90
44069;DHT22;29738;51.234;5.484;2023-02-28T09:52:49;2.50;99.90
44069;DHT22;29738;51.234;5.484;2023-02-28T09:55:33;2.30;99.90
44069;DHT22;29738;51.234;5.484;2023-02-28T09:58:00;2.40;99.90
44069;DHT22;29738;51.234;5.484;2023-02-28T10:00:46;2.50;99.90
44069;DHT22;29738;51.234;5.484;2023-02-28T10:03:43;2.60;99.90
44069;DHT22;29738;51.234;5.484;2023-02-28T10:06:19;2.60;99.90
44069;DHT22;29738;51.234;5.484;2023-02-28T10:11:23;2.90;99.90
44069;DHT22;29738;51.234;5.484;2023-02-28T10:13:59;2.80;99.90
44069;DHT22;29738;51.234;5.484;2023-02-28T10:19:40;3.10;99.90
44069;DHT22;29738;51.234;5.484;2023-02-28T10:22:14;3.00;99.90
44069;DHT22;29738;51.234;5.484;2023-02-28T10:24:45;3.10;99.90
44069;DHT22;29738;51.234;5.484;2023-02-28T10:27:21;3.20;99.90
44069;DHT22;29738;51.234;5.484;2023-02-28T10:29:55;3.30;99.90
44069;DHT22;29738;51.234;5.484;2023-02-28T10:32:24;3.40;99.90
44069;DHT22;29738;51.234;5.484;2023-02-28T10:37:37;3.40;99.90
44069;DHT22;29738;51.234;5.484;2023-02-28T10:40:05;3.40;99.90
44069;DHT22;29738;51.234;5.484;2023-02-28T10:42:32;3.40;99.90
44069;DHT22;29738;51.234;5.484;2023-02-28T10:45:14;3.50;99.90
44069;DHT22;29738;51.234;5.484;2023-02-28T10:47:58;3.50;99.90
44069;DHT22;29738;51.234;5.484;2023-02-28T11:01:34;3.70;99.90
44069;DHT22;29738;51.234;5.484;2023-02-28T11:04:01;3.70;99.90
44069;DHT22;29738;51.234;5.484;2023-02-28T11:06:36;3.50;99.90
44069;DHT22;29738;51.234;5.484;2023-02-28T11:09:19;3.70;99.90
44069;DHT22;29738;51.234;5.484;2023-02-28T11:11:47;3.70;99.90
44069;DHT22;29738;51.234;5.484;2023-02-28T11:14:24;3.60;99.90
44069;DHT22;29738;51.234;5.484;2023-02-28T11:16:51;3.60;99.90
44069;DHT22;29738;51.234;5.484;2023-02-28T11:19:31;3.70;99.90
44069;DHT22;29738;51.234;5.484;2023-02-28T11:22:04;3.80;99.90
44069;DHT22;29738;51.234;5.484;2023-02-28T11:24:43;3.80;99.90
44069;DHT22;29738;51.234;5.484;2023-02-28T11:29:59;3.90;99.90
44069;DHT22;29738;51.234;5.484;2023-02-28T11:32:27;3.90;99.90
44069;DHT22;29738;51.234;5.484;2023-02-28T11:37:35;3.90;99.90
44069;DHT22;29738;51.234;5.484;2023-02-28T11:40:02;3.90;99.90
44069;DHT22;29738;51.234;5.484;2023-02-28T11:42:50;4.00;99.90
44069;DHT22;29738;51.234;5.484;2023-02-28T11:48:23;4.00;99.90
44069;DHT22;29738;51.234;5.484;2023-02-28T11:51:15;3.80;99.90
44069;DHT22;29738;51.234;5.484;2023-02-28T11:56:39;4.10;99.90
44069;DHT22;29738;51.234;5.484;2023-02-28T11:59:28;4.10;99.90
44069;DHT22;29738;51.234;5.484;2023-02-28T12:02:53;4.10;99.90
44069;DHT22;29738;51.234;5.484;2023-02-28T12:05:38;4.00;99.90
44069;DHT22;29738;51.234;5.484;2023-02-28T12:22:21;4.00;99.90
44069;DHT22;29738;51.234;5.484;2023-02-28T12:25:13;3.90;99.90
44069;DHT22;29738;51.234;5.484;2023-02-28T12:27:44;3.80;99.90
44069;DHT22;29738;51.234;5.484;2023-02-28T12:30:33;4.10;99.90
44069;DHT22;29738;51.234;5.484;2023-02-28T12:33:09;4.30;99.90
44069;DHT22;29738;51.234;5.484;2023-02-28T12:38:14;4.40;99.90
44069;DHT22;29738;51.234;5.484;2023-02-28T12:40:50;4.20;99.90
44069;DHT22;29738;51.234;5.484;2023-02-28T12:43:17;4.30;99.90
44069;DHT22;29738;51.234;5.484;2023-02-28T12:45:51;4.10;99.90
44069;DHT22;29738;51.234;5.484;2023-02-28T12:48:29;4.00;99.90
44069;DHT22;29738;51.234;5.484;2023-02-28T12:50:57;3.90;99.90
44069;DHT22;29738;51.234;5.484;2023-02-28T12:53:35;3.90;99.90
44069;DHT22;29738;51.234;5.484;2023-02-28T13:09:24;4.50;99.90
44069;DHT22;29738;51.234;5.484;2023-02-28T13:11:52;4.40;99.90
44069;DHT22;29738;51.234;5.484;2023-02-28T13:14:36;4.50;99.90
44069;DHT22;29738;51.234;5.484;2023-02-28T13:22:40;4.60;99.90
44069;DHT22;29738;51.234;5.484;2023-02-28T13:27:53;4.60;99.90
44069;DHT22;29738;51.234;5.484;2023-02-28T13:33:31;4.40;99.90
44069;DHT22;29738;51.234;5.484;2023-02-28T13:38:49;4.60;99.90
44069;DHT22;29738;51.234;5.484;2023-02-28T13:46:25;4.40;99.90
44069;DHT22;29738;51.234;5.484;2023-02-28T13:48:51;4.40;99.90
44069;DHT22;29738;51.234;5.484;2023-02-28T13:59:31;4.50;99.90
44069;DHT22;29738;51.234;5.484;2023-02-28T14:02:30;4.40;99.90
44069;DHT22;29738;51.234;5.484;2023-02-28T14:05:04;4.50;99.90
44069;DHT22;29738;51.234;5.484;2023-02-28T14:07:38;4.50;99.90
44069;DHT22;29738;51.234;5.484;2023-02-28T14:10:07;4.60;99.90
44069;DHT22;29738;51.234;5.484;2023-02-28T14:18:00;4.80;99.90
44069;DHT22;29738;51.234;5.484;2023-02-28T14:20:32;4.80;99.90
44069;DHT22;29738;51.234;5.484;2023-02-28T14:23:12;4.80;99.90
44069;DHT22;29738;51.234;5.484;2023-02-28T14:25:51;4.50;99.90
44069;DHT22;29738;51.234;5.484;2023-02-28T14:31:06;4.70;99.90
44069;DHT22;29738;51.234;5.484;2023-02-28T14:34:14;4.80;99.90
44069;DHT22;29738;51.234;5.484;2023-02-28T14:36:43;4.80;99.80
44069;DHT22;29738;51.234;5.484;2023-02-28T14:39:25;4.80;99.90
44069;DHT22;29738;51.234;5.484;2023-02-28T14:41:51;4.90;99.90
44069;DHT22;29738;51.234;5.484;2023-02-28T14:44:25;4.90;99.90
44069;DHT22;29738;51.234;5.484;2023-02-28T14:47:04;4.90;99.90
44069;DHT22;29738;51.234;5.484;2023-02-28T14:49:37;4.90;99.90
44069;DHT22;29738;51.234;5.484;2023-02-28T14:52:22;5.00;99.90
44069;DHT22;29738;51.234;5.484;2023-02-28T14:54:54;4.90;99.70
44069;DHT22;29738;51.234;5.484;2023-02-28T15:00:02;4.90;99.90
44069;DHT22;29738;51.234;5.484;2023-02-28T15:02:33;5.00;99.90
44069;DHT22;29738;51.234;5.484;2023-02-28T15:05:50;4.90;99.90
44069;DHT22;29738;51.234;5.484;2023-02-28T15:07:49;4.90;99.90
44069;DHT22;29738;51.234;5.484;2023-02-28T15:10:26;4.80;99.90
44069;DHT22;29738;51.234;5.484;2023-02-28T15:13:00;4.80;99.90
44069;DHT22;29738;51.234;5.484;2023-02-28T15:15:40;4.90;99.90
44069;DHT22;29738;51.234;5.484;2023-02-28T15:18:15;4.90;99.90
44069;DHT22;29738;51.234;5.484;2023-02-28T15:20:43;4.90;99.90
44069;DHT22;29738;51.234;5.484;2023-02-28T15:23:10;5.00;99.90
44069;DHT22;29738;51.234;5.484;2023-02-28T15:25:36;5.00;99.90
44069;DHT22;29738;51.234;5.484;2023-02-28T15:28:02;5.00;99.90
44069;DHT22;29738;51.234;5.484;2023-02-28T15:30:30;5.00;99.90
44069;DHT22;29738;51.234;5.484;2023-02-28T15:33:17;5.00;99.90
44069;DHT22;29738;51.234;5.484;2023-02-28T15:35:44;5.10;99.90
44069;DHT22;29738;51.234;5.484;2023-02-28T15:38:27;5.10;99.90
44069;DHT22;29738;51.234;5.484;2023-02-28T15:40:54;5.10;99.90
44069;DHT22;29738;51.234;5.484;2023-02-28T15:43:26;5.00;99.90
44069;DHT22;29738;51.234;5.484;2023-02-28T15:46:12;5.00;99.90
44069;DHT22;29738;51.234;5.484;2023-02-28T15:48:54;4.90;99.90
44069;DHT22;29738;51.234;5.484;2023-02-28T15:51:25;4.90;99.90
44069;DHT22;29738;51.234;5.484;2023-02-28T15:53:58;4.80;99.90
44069;DHT22;29738;51.234;5.484;2023-02-28T15:56:27;4.80;99.90
44069;DHT22;29738;51.234;5.484;2023-02-28T15:58:55;4.80;99.90
44069;DHT22;29738;51.234;5.484;2023-02-28T16:01:27;4.80;99.90
44069;DHT22;29738;51.234;5.484;2023-02-28T16:03:58;4.80;99.90
44069;DHT22;29738;51.234;5.484;2023-02-28T16:06:38;4.80;99.90
44069;DHT22;29738;51.234;5.484;2023-02-28T16:09:08;4.80;99.90
44069;DHT22;29738;51.234;5.484;2023-02-28T16:11:38;4.80;99.90
44069;DHT22;29738;51.234;5.484;2023-02-28T16:14:05;4.80;99.90
44069;DHT22;29738;51.234;5.484;2023-02-28T16:16:31;4.70;99.90
44069;DHT22;29738;51.234;5.484;2023-02-28T16:18:58;4.70;99.90
44069;DHT22;29738;51.234;5.484;2023-02-28T16:21:25;4.70;99.90
44069;DHT22;29738;51.234;5.484;2023-02-28T16:23:50;4.70;99.90
44069;DHT22;29738;51.234;5.484;2023-02-28T16:26:21;4.60;99.90
44069;DHT22;29738;51.234;5.484;2023-02-28T16:28:48;4.60;99.90
44069;DHT22;29738;51.234;5.484;2023-02-28T16:31:14;4.60;99.90
44069;DHT22;29738;51.234;5.484;2023-02-28T16:33:42;4.50;99.90
44069;DHT22;29738;51.234;5.484;2023-02-28T16:36:21;4.50;99.90
44069;DHT22;29738;51.234;5.484;2023-02-28T16:38:48;4.50;99.90
44069;DHT22;29738;51.234;5.484;2023-02-28T16:41:25;4.50;99.90
44069;DHT22;29738;51.234;5.484;2023-02-28T16:43:54;4.50;99.90
44069;DHT22;29738;51.234;5.484;2023-02-28T16:46:27;4.40;99.90
44069;DHT22;29738;51.234;5.484;2023-02-28T16:48:53;4.40;99.90
44069;DHT22;29738;51.234;5.484;2023-02-28T16:51:22;4.30;99.90
44069;DHT22;29738;51.234;5.484;2023-02-28T16:53:47;4.20;99.90
44069;DHT22;29738;51.234;5.484;2023-02-28T16:56:18;4.20;99.90
44069;DHT22;29738;51.234;5.484;2023-02-28T16:58:45;4.10;99.90
44069;DHT22;29738;51.234;5.484;2023-02-28T17:01:11;4.00;99.90
44069;DHT22;29738;51.234;5.484;2023-02-28T17:03:37;4.00;99.90
44069;DHT22;29738;51.234;5.484;2023-02-28T17:06:04;3.80;99.90
44069;DHT22;29738;51.234;5.484;2023-02-28T17:08:31;3.70;99.90
44069;DHT22;29738;51.234;5.484;2023-02-28T17:10:58;3.70;99.90
44069;DHT22;29738;51.234;5.484;2023-02-28T17:13:26;3.50;99.90
44069;DHT22;29738;51.234;5.484;2023-02-28T17:15:52;3.40;99.90
44069;DHT22;29738;51.234;5.484;2023-02-28T17:18:19;3.20;99.90
44069;DHT22;29738;51.234;5.484;2023-02-28T17:20:46;3.30;99.90
44069;DHT22;29738;51.234;5.484;2023-02-28T17:23:12;3.30;99.90
44069;DHT22;29738;51.234;5.484;2023-02-28T17:25:38;3.30;99.90
44069;DHT22;29738;51.234;5.484;2023-02-28T17:28:04;3.40;99.90
44069;DHT22;29738;51.234;5.484;2023-02-28T17:30:34;3.40;99.90
44069;DHT22;29738;51.234;5.484;2023-02-28T17:33:00;3.30;99.90
44069;DHT22;29738;51.234;5.484;2023-02-28T17:35:25;3.30;99.90
44069;DHT22;29738;51.234;5.484;2023-02-28T17:37:52;3.20;99.90
44069;DHT22;29738;51.234;5.484;2023-02-28T17:40:23;3.10;99.90
44069;DHT22;29738;51.234;5.484;2023-02-28T17:42:48;3.00;99.90
44069;DHT22;29738;51.234;5.484;2023-02-28T17:45:15;3.00;99.90
44069;DHT22;29738;51.234;5.484;2023-02-28T17:47:43;2.90;99.90
44069;DHT22;29738;51.234;5.484;2023-02-28T17:50:18;2.80;99.90
44069;DHT22;29738;51.234;5.484;2023-02-28T17:52:44;2.60;99.90
44069;DHT22;29738;51.234;5.484;2023-02-28T17:55:10;2.70;99.90
44069;DHT22;29738;51.234;5.484;2023-02-28T17:57:36;2.60;99.90
44069;DHT22;29738;51.234;5.484;2023-02-28T18:00:02;2.60;99.90
44069;DHT22;29738;51.234;5.484;2023-02-28T18:02:32;2.50;99.90